Terminal Aerodrome Forecast
Issued by NWS

Current Version | Previous Version | Graphics & Text | Print | Product List | Glossary On
Versions: 1 2 3 4 5 6 7 8 9 10 11 12 13 14 15 16 17 18 19 20 21 22 23 24 25
000
FTUS41 KRNK 220344 AAB
TAFLWB
TAF AMD
KLWB 220344Z 2204/2224 00000KT P6SM SCT090 OVC110
     FM220500 VRB03KT 5SM -SHRA OVC015
     FM220700 00000KT 1/2SM FG OVC001
     FM221400 26006KT P6SM BKN025=

USA.gov is the U.S. government's official web portal to all federal, state and local government web resources and services.